Time;durP1;ratioP1;P1;durP2;ratioP2;P2;SDS_P1;SDS_P2;PMS_P1;PMS_P2;Temp;Humidity;BMP_temperature;BMP_pressure;BME280_temperature;BME280_humidity;BME280_pressure;Samples;Min_cycle;Max_cycle;Signal;HPM_P1;HPM_P2
2022/12/29 00:01:02;;;;;;;5.47;3.80;;;8.90;99.90;;;;;;4974033;28;20041;-83
2022/12/29 00:03:28;;;;;;;5.93;3.80;;;9.00;99.90;;;;;;4975861;28;20053;-82
2022/12/29 00:05:55;;;;;;;5.70;3.47;;;8.90;99.90;;;;;;5007784;28;20704;-83
2022/12/29 00:08:38;;;;;;;5.22;3.65;;;8.90;99.90;;;;;;4988674;28;20045;-83
2022/12/29 00:11:12;;;;;;;3.67;2.70;;;8.90;99.90;;;;;;4992408;28;20050;-83
2022/12/29 00:16:24;;;;;;;6.20;2.80;;;9.00;99.90;;;;;;4995716;28;20058;-83
2022/12/29 00:18:50;;;;;;;5.10;2.22;;;8.80;99.90;;;;;;4987619;28;20056;-83
2022/12/29 00:35:41;;;;;;;6.93;1.88;;;8.70;99.90;;;;;;4998853;28;20054;-84
2022/12/29 00:46:21;;;;;;;10.48;2.20;;;8.70;99.90;;;;;;4995225;28;20049;-83
2022/12/29 00:51:31;;;;;;;11.68;2.72;;;8.80;99.90;;;;;;4998925;28;20054;-86
2022/12/29 00:53:57;;;;;;;8.50;2.10;;;8.80;99.90;;;;;;4994167;28;20064;-83
2022/12/29 00:56:22;;;;;;;8.45;2.17;;;8.80;99.90;;;;;;4958827;28;20054;-83
2022/12/29 00:58:51;;;;;;;5.88;2.30;;;8.80;99.90;;;;;;4992658;28;20136;-83
2022/12/29 01:01:17;;;;;;;5.68;2.17;;;8.80;99.90;;;;;;5012784;28;20043;-84
2022/12/29 01:03:46;;;;;;;4.60;1.80;;;8.90;99.90;;;;;;5009001;28;20438;-84
2022/12/29 01:06:12;;;;;;;3.60;1.90;;;8.90;99.90;;;;;;4989616;28;20687;-83
2022/12/29 01:08:38;;;;;;;3.97;2.45;;;9.00;99.90;;;;;;4995205;28;20046;-83
2022/12/29 01:11:12;;;;;;;5.10;2.78;;;8.90;99.90;;;;;;4997956;28;20050;-83
2022/12/29 01:13:40;;;;;;;6.13;3.42;;;9.00;99.90;;;;;;4993284;28;20050;-83
2022/12/29 01:16:06;;;;;;;6.63;3.78;;;9.00;99.90;;;;;;4996350;28;20050;-83
2022/12/29 01:18:32;;;;;;;7.45;4.07;;;9.00;99.90;;;;;;4960627;28;20160;-83
2022/12/29 01:21:03;;;;;;;7.13;4.40;;;9.00;99.90;;;;;;4976022;28;20132;-84
2022/12/29 01:23:30;;;;;;;5.60;4.25;;;7.80;99.90;;;;;;5008546;28;20041;-85
2022/12/29 01:26:11;;;;;;;5.60;4.20;;;9.00;99.90;;;;;;5009837;28;20053;-84
2022/12/29 01:28:39;;;;;;;6.38;4.18;;;9.00;99.90;;;;;;4991226;28;20041;-84
2022/12/29 01:31:06;;;;;;;5.63;3.83;;;8.90;99.90;;;;;;4974927;28;20483;-83
2022/12/29 01:33:32;;;;;;;6.20;4.18;;;9.00;99.90;;;;;;4960278;28;20053;-85
2022/12/29 01:36:05;;;;;;;7.88;4.13;;;9.00;99.90;;;;;;4988243;28;20046;-83
2022/12/29 01:38:35;;;;;;;5.15;4.10;;;9.00;99.90;;;;;;4972383;28;20633;-86
2022/12/29 01:41:03;;;;;;;4.50;3.72;;;9.00;99.90;;;;;;4992132;28;20653;-85
2022/12/29 01:43:54;;;;;;;5.43;4.13;;;9.20;99.90;;;;;;4996006;28;20049;-84
2022/12/29 01:46:29;;;;;;;6.18;3.97;;;9.00;99.90;;;;;;4995224;28;20371;-84
2022/12/29 01:49:07;;;;;;;6.13;3.60;;;9.10;99.90;;;;;;4994361;28;20069;-83
2022/12/29 01:51:40;;;;;;;6.07;3.70;;;9.20;99.90;;;;;;4989512;28;20495;-85
2022/12/29 01:54:12;;;;;;;5.95;3.92;;;9.00;99.90;;;;;;4995433;28;20045;-84
2022/12/29 01:56:42;;;;;;;4.63;3.50;;;9.00;99.90;;;;;;4993111;28;20046;-84
2022/12/29 01:59:13;;;;;;;5.05;3.92;;;9.20;99.90;;;;;;4990842;28;20060;-84
2022/12/29 02:01:42;;;;;;;5.55;4.35;;;9.10;99.90;;;;;;5008315;28;20121;-84
2022/12/29 02:04:11;;;;;;;7.63;4.80;;;9.30;99.90;;;;;;5004576;28;20128;-85
2022/12/29 02:06:52;;;;;;;6.55;4.25;;;9.10;99.90;;;;;;4986373;28;20521;-85
2022/12/29 02:09:18;;;;;;;9.15;3.90;;;9.00;99.90;;;;;;5006911;28;20061;-85
2022/12/29 02:11:44;;;;;;;5.47;3.85;;;9.00;99.90;;;;;;4993921;28;20145;-86
2022/12/29 02:14:13;;;;;;;4.35;2.92;;;9.00;99.90;;;;;;4966289;28;20132;-84
2022/12/29 02:17:00;;;;;;;5.32;2.28;;;9.00;99.90;;;;;;4985741;28;20672;-86
2022/12/29 02:19:48;;;;;;;3.78;2.10;;;8.90;99.90;;;;;;5013106;28;20125;-84
2022/12/29 02:22:54;;;;;;;7.05;2.00;;;8.90;99.90;;;;;;4997437;28;20059;-85
2022/12/29 02:25:32;;;;;;;4.47;1.33;;;8.80;99.90;;;;;;4917423;28;20410;-85
2022/12/29 02:28:43;;;;;;;3.45;1.42;;;8.00;99.90;;;;;;4992838;28;20052;-84
2022/12/29 02:31:41;;;;;;;4.90;1.10;;;8.70;99.90;;;;;;4993069;28;20149;-85
2022/12/29 02:34:50;;;;;;;2.28;0.80;;;8.60;99.90;;;;;;5008511;28;20053;-85
2022/12/29 02:37:27;;;;;;;5.05;1.00;;;8.60;99.90;;;;;;4889841;29;20091;-86
2022/12/29 02:40:04;;;;;;;7.10;1.20;;;8.70;99.90;;;;;;4991276;28;20096;-86
2022/12/29 02:42:33;;;;;;;3.75;0.80;;;8.70;99.90;;;;;;4994447;28;20103;-84
2022/12/29 02:45:02;;;;;;;3.58;0.80;;;8.60;99.90;;;;;;4986544;28;20502;-85
2022/12/29 02:47:52;;;;;;;4.13;1.10;;;8.50;99.90;;;;;;5008583;28;20049;-85
2022/12/29 02:50:29;;;;;;;1.95;0.93;;;8.60;99.90;;;;;;4991414;28;20045;-85
2022/12/29 02:53:00;;;;;;;3.33;1.00;;;8.60;99.90;;;;;;4992324;28;20079;-83
2022/12/29 02:55:26;;;;;;;2.70;0.80;;;8.60;99.90;;;;;;5020668;28;20041;-85
2022/12/29 02:58:21;;;;;;;4.70;1.00;;;8.70;99.90;;;;;;5008042;28;20061;-86
2022/12/29 03:00:53;;;;;;;6.85;1.30;;;7.60;99.90;;;;;;4993070;28;20045;-85
2022/12/29 03:03:45;;;;;;;5.65;1.55;;;8.70;99.90;;;;;;4990943;28;20390;-84
2022/12/29 03:06:21;;;;;;;6.00;1.50;;;8.70;99.90;;;;;;5006936;28;20053;-84
2022/12/29 03:08:50;;;;;;;;;;;8.60;99.90;;;;;;4993425;28;20145;-84
2022/12/29 03:17:09;;;;;;;13.52;2.88;;;8.40;99.90;;;;;;5015367;28;20081;-84
2022/12/29 03:19:39;;;;;;;17.35;2.92;;;8.40;99.90;;;;;;4998334;28;20054;-85
2022/12/29 03:22:26;;;;;;;15.40;2.92;;;8.30;99.90;;;;;;4980487;28;20038;-83
2022/12/29 03:24:59;;;;;;;12.82;2.50;;;8.50;99.90;;;;;;4991981;28;20045;-84
2022/12/29 03:27:32;;;;;;;16.65;3.33;;;8.40;99.90;;;;;;4997180;28;20128;-85
2022/12/29 03:30:02;;;;;;;13.73;2.67;;;8.30;99.90;;;;;;4993392;28;20680;-87
2022/12/29 03:32:34;;;;;;;12.70;2.58;;;7.30;99.90;;;;;;4992298;28;20050;-86
2022/12/29 03:35:07;;;;;;;13.88;2.45;;;8.60;99.90;;;;;;4992930;28;20476;-84
2022/12/29 03:37:40;;;;;;;10.93;2.95;;;8.40;99.90;;;;;;5005304;28;20042;-85
2022/12/29 03:40:11;;;;;;;12.98;2.83;;;8.40;99.90;;;;;;4989783;28;20050;-85
2022/12/29 03:42:43;;;;;;;17.98;2.95;;;8.30;99.90;;;;;;5007949;28;20089;-84
2022/12/29 03:45:13;;;;;;;14.50;2.58;;;8.40;99.90;;;;;;4987004;28;20030;-84
2022/12/29 03:47:42;;;;;;;11.32;2.80;;;8.20;99.90;;;;;;4974962;28;20050;-85
2022/12/29 03:50:08;;;;;;;12.38;2.58;;;8.30;99.90;;;;;;4988327;28;20041;-86
2022/12/29 03:52:34;;;;;;;18.23;2.42;;;8.20;99.90;;;;;;4989449;28;20073;-84
2022/12/29 03:55:00;;;;;;;15.18;2.75;;;7.10;99.90;;;;;;5006228;28;20138;-84
2022/12/29 03:57:28;;;;;;;16.40;2.35;;;8.20;99.90;;;;;;4992620;28;20041;-83
2022/12/29 03:59:56;;;;;;;12.02;2.40;;;8.20;99.90;;;;;;5007227;28;20515;-84
2022/12/29 04:02:31;;;;;;;11.52;2.55;;;8.20;99.90;;;;;;5002705;28;20042;-84
2022/12/29 04:04:56;;;;;;;7.32;2.20;;;8.20;99.90;;;;;;4994912;28;20132;-85
2022/12/29 04:07:22;;;;;;;15.82;2.83;;;8.10;99.90;;;;;;4974452;28;20115;-85
2022/12/29 04:09:50;;;;;;;20.98;3.10;;;8.20;99.90;;;;;;4977289;28;20137;-84
2022/12/29 04:12:16;;;;;;;15.18;2.70;;;7.10;99.90;;;;;;4969727;28;20057;-85
2022/12/29 04:14:42;;;;;;;11.73;2.80;;;8.10;99.90;;;;;;4972898;28;20051;-83
2022/12/29 04:17:08;;;;;;;18.02;2.95;;;8.10;99.90;;;;;;4970866;28;20053;-83
2022/12/29 04:19:34;;;;;;;16.42;2.65;;;8.10;99.90;;;;;;4976612;28;20050;-83
2022/12/29 04:21:59;;;;;;;23.52;3.85;;;8.00;99.90;;;;;;4990128;28;20052;-82
2022/12/29 04:24:25;;;;;;;17.50;3.30;;;8.10;99.90;;;;;;4989033;28;20078;-83
2022/12/29 04:26:58;;;;;;;20.40;4.28;;;8.00;99.90;;;;;;4991579;28;20061;-83
2022/12/29 04:29:27;;;;;;;21.95;4.65;;;8.10;99.90;;;;;;4994595;28;20042;-83
2022/12/29 04:31:52;;;;;;;19.50;3.33;;;8.10;99.90;;;;;;5007511;28;20049;-83
2022/12/29 04:34:20;;;;;;;16.85;3.55;;;8.10;99.90;;;;;;5016385;28;20128;-83
2022/12/29 04:36:47;;;;;;;19.63;3.33;;;8.00;99.90;;;;;;5003107;28;20049;-84
2022/12/29 04:39:14;;;;;;;22.63;3.45;;;8.00;99.90;;;;;;5010662;28;20502;-83
2022/12/29 04:41:42;;;;;;;15.95;3.15;;;7.90;99.90;;;;;;4999405;28;20057;-85
2022/12/29 04:44:08;;;;;;;24.27;4.65;;;8.00;99.90;;;;;;4993564;28;20117;-83
2022/12/29 04:46:38;;;;;;;23.88;4.10;;;8.00;99.90;;;;;;4994380;28;20153;-85
2022/12/29 04:49:08;;;;;;;20.17;3.63;;;6.90;99.90;;;;;;4999229;28;20057;-84
2022/12/29 04:51:34;;;;;;;28.15;4.28;;;8.10;99.90;;;;;;5014126;28;20050;-85
2022/12/29 04:54:00;;;;;;;22.13;3.92;;;8.10;99.90;;;;;;4981860;28;20483;-84
2022/12/29 04:56:26;;;;;;;22.83;4.30;;;8.10;99.90;;;;;;4994942;28;20046;-84
2022/12/29 04:58:52;;;;;;;17.90;3.50;;;8.10;99.90;;;;;;4995072;28;20053;-84
2022/12/29 05:01:17;;;;;;;19.80;4.43;;;6.90;99.90;;;;;;4972342;28;20115;-84
2022/12/29 05:03:45;;;;;;;19.15;3.80;;;8.10;99.90;;;;;;4989970;28;20093;-85
2022/12/29 05:06:16;;;;;;;15.35;3.88;;;8.10;99.90;;;;;;4994653;28;20505;-85
2022/12/29 05:08:47;;;;;;;23.15;3.67;;;8.20;99.90;;;;;;4998945;28;20398;-85
2022/12/29 05:11:13;;;;;;;23.58;3.92;;;8.40;99.90;;;;;;4994988;28;20050;-85
2022/12/29 05:13:38;;;;;;;22.02;3.33;;;8.20;99.90;;;;;;4996433;28;20097;-83
2022/12/29 05:16:04;;;;;;;19.13;3.80;;;8.20;99.90;;;;;;4996057;28;20041;-82
2022/12/29 05:18:30;;;;;;;23.23;3.92;;;8.30;99.90;;;;;;4982720;28;20128;-84
2022/12/29 05:20:56;;;;;;;21.92;4.70;;;8.20;99.90;;;;;;4982802;28;20156;-83
2022/12/29 05:23:22;;;;;;;19.85;3.63;;;8.30;99.90;;;;;;4981129;28;20046;-83
2022/12/29 05:25:48;;;;;;;16.75;3.03;;;8.50;99.90;;;;;;5000740;28;20117;-83
2022/12/29 05:28:16;;;;;;;19.27;3.20;;;7.30;99.90;;;;;;4996352;28;20041;-84
2022/12/29 05:30:42;;;;;;;19.13;3.78;;;8.30;99.90;;;;;;4986839;28;20092;-83
2022/12/29 05:33:11;;;;;;;17.33;2.97;;;8.30;99.90;;;;;;4997650;28;20130;-85
2022/12/29 05:35:37;;;;;;;17.25;3.40;;;8.30;99.90;;;;;;4995578;28;20137;-84
2022/12/29 05:38:02;;;;;;;20.67;3.90;;;7.10;99.90;;;;;;4997406;28;20149;-85
2022/12/29 05:40:28;;;;;;;17.63;3.40;;;7.10;99.90;;;;;;4998371;28;20049;-83
2022/12/29 05:42:56;;;;;;;17.13;3.72;;;8.30;99.90;;;;;;4976742;28;20053;-83
2022/12/29 05:45:22;;;;;;;21.27;3.80;;;8.30;99.90;;;;;;4992846;28;20469;-84
2022/12/29 05:47:51;;;;;;;17.27;3.83;;;8.30;99.90;;;;;;5014913;28;20125;-85
2022/12/29 05:50:17;;;;;;;20.00;3.95;;;8.20;99.90;;;;;;4992045;28;20074;-84
2022/12/29 05:52:43;;;;;;;23.85;4.22;;;8.30;99.90;;;;;;4993743;28;20093;-84
2022/12/29 05:55:09;;;;;;;23.10;4.55;;;8.30;99.90;;;;;;4996691;28;20047;-83
2022/12/29 05:57:35;;;;;;;19.00;4.13;;;8.30;99.90;;;;;;4977577;28;20128;-84
2022/12/29 06:00:02;;;;;;;21.30;4.25;;;8.40;99.90;;;;;;4993765;28;20064;-82
2022/12/29 06:02:28;;;;;;;19.73;3.50;;;8.30;99.90;;;;;;4996413;28;20128;-84
2022/12/29 06:04:55;;;;;;;21.48;4.97;;;8.30;99.90;;;;;;4965184;28;20042;-83
2022/12/29 06:07:21;;;;;;;30.83;4.78;;;8.20;99.90;;;;;;4982167;28;20514;-84
2022/12/29 06:09:47;;;;;;;24.27;4.95;;;8.20;99.90;;;;;;5000065;28;20132;-86
2022/12/29 06:12:22;;;;;;;19.10;4.05;;;8.20;99.90;;;;;;4994295;28;20504;-84
2022/12/29 06:14:55;;;;;;;22.40;4.13;;;8.20;99.90;;;;;;5001658;28;20073;-84
2022/12/29 06:17:24;;;;;;;19.42;3.45;;;7.80;99.90;;;;;;4980647;28;20057;-84
2022/12/29 06:19:52;;;;;;;26.20;3.97;;;8.40;99.90;;;;;;5013919;28;20048;-84
2022/12/29 06:22:18;;;;;;;23.17;4.15;;;8.10;99.90;;;;;;4990905;28;20136;-84
2022/12/29 06:24:44;;;;;;;21.42;3.83;;;8.20;99.90;;;;;;4982047;28;20124;-84
2022/12/29 06:27:10;;;;;;;30.33;4.63;;;8.10;99.90;;;;;;4992991;28;20052;-86
2022/12/29 06:29:36;;;;;;;18.27;3.90;;;8.10;99.90;;;;;;4993801;28;20142;-85
2022/12/29 06:32:03;;;;;;;25.55;4.45;;;8.10;99.90;;;;;;5011741;28;20089;-85
2022/12/29 06:34:29;;;;;;;26.23;3.95;;;8.20;99.90;;;;;;4996742;28;20046;-84
2022/12/29 06:36:55;;;;;;;22.65;4.53;;;8.10;99.90;;;;;;4999628;28;20042;-86
2022/12/29 06:39:21;;;;;;;21.30;3.60;;;8.10;99.90;;;;;;4997505;28;20046;-83
2022/12/29 06:41:46;;;;;;;14.63;3.45;;;8.10;99.90;;;;;;4980347;28;20053;-84
2022/12/29 06:44:12;;;;;;;25.95;4.68;;;8.10;99.90;;;;;;4996915;28;20034;-85
2022/12/29 06:46:38;;;;;;;22.20;4.18;;;8.20;99.90;;;;;;4993718;28;20042;-85
2022/12/29 06:49:04;;;;;;;22.27;3.80;;;8.00;99.90;;;;;;4997638;28;20049;-85
2022/12/29 06:51:30;;;;;;;23.42;4.32;;;8.20;99.90;;;;;;4999877;28;20056;-86
2022/12/29 06:53:55;;;;;;;22.08;4.82;;;8.10;99.90;;;;;;4998743;28;20084;-83
2022/12/29 06:56:21;;;;;;;23.35;4.30;;;8.20;99.90;;;;;;5008212;28;20483;-83
2022/12/29 06:58:47;;;;;;;15.65;3.88;;;8.20;99.90;;;;;;4994300;28;20069;-84
2022/12/29 07:01:18;;;;;;;22.33;4.25;;;7.80;99.90;;;;;;4982203;28;20046;-84
2022/12/29 07:03:47;;;;;;;18.00;3.97;;;8.20;99.90;;;;;;4990992;28;20045;-83
2022/12/29 07:06:12;;;;;;;20.98;3.90;;;8.20;99.90;;;;;;4993711;28;20050;-82
2022/12/29 07:08:38;;;;;;;16.08;3.72;;;8.10;99.90;;;;;;4997707;28;20355;-84
2022/12/29 07:11:14;;;;;;;26.50;4.47;;;8.20;99.90;;;;;;5015107;28;20483;-88
2022/12/29 07:13:45;;;;;;;25.17;4.35;;;8.40;99.90;;;;;;4987424;28;20056;-87
2022/12/29 07:16:24;;;;;;;24.30;4.43;;;8.20;99.90;;;;;;5007572;28;20133;-87
2022/12/29 07:18:59;;;;;;;20.67;4.38;;;8.30;99.90;;;;;;5010928;28;20041;-89
2022/12/29 07:21:25;;;;;;;24.10;4.15;;;8.30;99.90;;;;;;5003893;28;20479;-87
2022/12/29 07:23:58;;;;;;;22.83;4.50;;;8.40;99.90;;;;;;4999658;28;20045;-87
2022/12/29 07:26:24;;;;;;;29.85;5.47;;;8.30;99.90;;;;;;5018835;28;20053;-84
2022/12/29 07:28:50;;;;;;;24.00;4.00;;;8.20;99.90;;;;;;4999583;28;20463;-84
2022/12/29 07:31:25;;;;;;;21.15;4.10;;;7.30;99.90;;;;;;4990062;28;20771;-88
2022/12/29 07:33:51;;;;;;;27.10;4.65;;;8.30;99.90;;;;;;4986145;28;20173;-85
2022/12/29 07:36:20;;;;;;;25.27;4.60;;;8.30;99.90;;;;;;5003471;28;20140;-86
2022/12/29 07:38:48;;;;;;;21.40;3.83;;;8.30;99.90;;;;;;4992912;28;20048;-86
2022/12/29 07:41:19;;;;;;;20.55;4.25;;;8.40;99.90;;;;;;4975584;28;20050;-88
2022/12/29 07:44:03;;;;;;;23.27;4.15;;;8.40;99.90;;;;;;4994621;28;20046;-89
2022/12/29 07:46:31;;;;;;;32.65;4.65;;;8.30;99.90;;;;;;4997321;28;20045;-86
2022/12/29 07:48:58;;;;;;;27.25;4.82;;;8.30;99.90;;;;;;4997947;28;20041;-86
2022/12/29 07:51:27;;;;;;;23.15;4.13;;;8.10;99.90;;;;;;4999449;28;20045;-88
2022/12/29 07:54:01;;;;;;;26.88;4.53;;;7.00;99.90;;;;;;4980878;28;20042;-87
2022/12/29 07:56:35;;;;;;;24.80;4.32;;;8.10;99.90;;;;;;5003192;28;20454;-87
2022/12/29 08:02:10;;;;;;;20.75;4.15;;;8.10;99.90;;;;;;5001124;28;20108;-87
2022/12/29 08:04:42;;;;;;;22.05;4.40;;;8.10;99.90;;;;;;4994905;28;20400;-85
2022/12/29 08:07:10;;;;;;;23.10;4.78;;;8.10;99.90;;;;;;4995259;28;20472;-86
2022/12/29 08:09:39;;;;;;;23.83;4.30;;;8.20;99.90;;;;;;4983356;28;20070;-86
2022/12/29 08:12:08;;;;;;;17.58;3.38;;;8.40;99.90;;;;;;4989027;28;20550;-87
2022/12/29 08:14:38;;;;;;;20.42;4.38;;;8.30;99.90;;;;;;4993288;28;20045;-84
2022/12/29 08:17:09;;;;;;;29.95;4.90;;;8.20;99.90;;;;;;4992087;28;20052;-86
2022/12/29 08:19:42;;;;;;;24.95;5.05;;;8.10;99.90;;;;;;4980791;28;20125;-88
2022/12/29 08:22:28;;;;;;;25.42;5.25;;;8.50;99.90;;;;;;4988848;28;20140;-88
2022/12/29 08:24:56;;;;;;;26.83;5.50;;;8.20;99.90;;;;;;4993384;28;20058;-85
2022/12/29 08:27:22;;;;;;;32.95;5.80;;;8.30;99.90;;;;;;4989980;28;20050;-83
2022/12/29 08:29:48;;;;;;;24.15;4.90;;;8.50;99.90;;;;;;4995278;28;20057;-85
2022/12/29 08:32:17;;;;;;;37.13;6.22;;;7.40;99.90;;;;;;5010136;28;20099;-86
2022/12/29 08:34:46;;;;;;;30.05;5.13;;;8.50;99.90;;;;;;4992889;28;20046;-88
2022/12/29 08:37:29;;;;;;;;;;;;;;;;;;;;;
2022/12/29 08:39:55;;;;;;;23.23;5.22;;;8.30;99.90;;;;;;5013503;28;20046;-86
2022/12/29 08:42:23;;;;;;;24.55;4.45;;;8.30;99.90;;;;;;4977735;28;20506;-84
2022/12/29 08:44:51;;;;;;;30.00;4.43;;;8.20;99.90;;;;;;5011683;28;20617;-86
2022/12/29 08:47:17;;;;;;;23.00;4.82;;;8.20;99.90;;;;;;5008322;28;20057;-84
2022/12/29 08:49:46;;;;;;;23.25;4.53;;;8.20;99.90;;;;;;4995701;28;20100;-87
2022/12/29 08:52:15;;;;;;;24.55;4.00;;;8.30;99.90;;;;;;4999957;28;20532;-86
2022/12/29 08:54:56;;;;;;;;;;;;;;;;;;;;;
2022/12/29 08:57:47;;;;;;;31.38;5.38;;;7.10;99.90;;;;;;5015080;28;20044;-90
2022/12/29 09:00:21;;;;;;;33.65;5.60;;;8.20;99.90;;;;;;4996322;28;20042;-87
2022/12/29 09:02:52;;;;;;;27.85;5.22;;;7.20;99.90;;;;;;5011163;28;20820;-88
2022/12/29 09:05:20;;;;;;;34.35;5.55;;;8.40;99.90;;;;;;4980890;28;20049;-87
2022/12/29 09:08:01;;;;;;;29.38;5.07;;;8.30;99.90;;;;;;5013482;28;20487;-91
2022/12/29 09:10:33;;;;;;;25.35;5.38;;;8.50;99.90;;;;;;5011380;28;20044;-87
2022/12/29 09:13:17;;;;;;;25.58;5.95;;;8.20;99.90;;;;;;5009747;28;20531;-87
2022/12/29 09:16:05;;;;;;;27.17;5.03;;;8.30;99.90;;;;;;5015385;28;20041;-87
2022/12/29 09:18:36;;;;;;;37.67;5.78;;;8.30;99.90;;;;;;4993066;28;20416;-86
2022/12/29 09:21:12;;;;;;;33.83;5.45;;;8.40;99.90;;;;;;5011660;28;20148;-86
2022/12/29 09:23:38;;;;;;;32.53;6.22;;;7.90;99.90;;;;;;4993433;28;20050;-87
2022/12/29 09:26:13;;;;;;;32.88;5.88;;;8.20;99.90;;;;;;4995703;28;20587;-85
2022/12/29 09:28:50;;;;;;;31.75;6.88;;;8.10;99.90;;;;;;4995938;28;20056;-86
2022/12/29 09:31:30;;;;;;;;;;;;;;;;;;;;;
2022/12/29 09:34:07;;;;;;;27.65;5.18;;;8.30;99.90;;;;;;5012087;28;20497;-89
2022/12/29 09:36:43;;;;;;;;;;;;;;;;;;;;;
2022/12/29 09:39:27;;;;;;;26.02;4.72;;;8.40;99.90;;;;;;5007646;28;20081;-87
2022/12/29 09:42:04;;;;;;;34.70;6.20;;;7.20;99.90;;;;;;4977378;28;20499;-83
2022/12/29 09:44:56;;;;;;;29.60;5.63;;;8.40;99.90;;;;;;4990115;28;20045;-86
2022/12/29 09:47:28;;;;;;;34.78;6.43;;;8.60;99.90;;;;;;5009699;28;20514;-85
2022/12/29 09:50:15;;;;;;;30.73;6.07;;;8.50;99.90;;;;;;4988946;28;20046;-83
2022/12/29 09:53:01;;;;;;;35.08;6.20;;;8.60;99.90;;;;;;4967499;28;20111;-85
2022/12/29 09:55:41;;;;;;;46.95;7.13;;;8.70;99.90;;;;;;4994115;28;20092;-84
2022/12/29 09:58:33;;;;;;;37.05;6.70;;;8.30;99.90;;;;;;4990707;28;20049;-83
2022/12/29 10:01:04;;;;;;;34.15;6.13;;;7.50;99.90;;;;;;5009465;28;20204;-83
2022/12/29 10:03:48;;;;;;;33.10;6.10;;;8.30;99.90;;;;;;4992988;28;20049;-84
2022/12/29 10:06:37;;;;;;;33.90;6.75;;;8.30;99.90;;;;;;4988755;28;20104;-84
2022/12/29 10:09:22;;;;;;;36.65;5.25;;;8.20;99.90;;;;;;4996091;28;20052;-84
2022/12/29 10:12:03;;;;;;;35.47;5.72;;;8.20;99.90;;;;;;5011328;28;20050;-85
2022/12/29 10:15:00;;;;;;;28.35;5.43;;;8.20;99.90;;;;;;5010825;28;20046;-84
2022/12/29 10:17:40;;;;;;;;;;;8.10;99.90;;;;;;4998243;28;20517;-85
2022/12/29 10:20:19;;;;;;;30.23;4.90;;;8.10;99.90;;;;;;5011730;28;19921;-85
2022/12/29 10:23:14;;;;;;;29.55;4.63;;;8.10;99.90;;;;;;4994529;28;20484;-86
2022/12/29 10:25:42;;;;;;;26.00;4.32;;;8.10;99.90;;;;;;4991869;28;20050;-84
2022/12/29 10:28:24;;;;;;;23.95;4.25;;;8.10;99.90;;;;;;5007742;28;20076;-84
2022/12/29 10:30:52;;;;;;;21.92;3.50;;;8.10;99.90;;;;;;5016434;28;20053;-84
2022/12/29 10:33:35;;;;;;;23.77;4.47;;;7.80;99.90;;;;;;4995043;28;20822;-83
2022/12/29 10:36:30;;;;;;;25.38;4.53;;;8.20;99.90;;;;;;5011225;28;20077;-84
2022/12/29 10:39:35;;;;;;;21.13;4.43;;;8.20;99.90;;;;;;4977523;28;20061;-83
2022/12/29 10:42:40;;;;;;;28.33;4.22;;;8.30;99.90;;;;;;4981446;28;20061;-85
2022/12/29 10:45:12;;;;;;;19.45;4.05;;;8.30;99.90;;;;;;5016150;28;20128;-84
2022/12/29 10:48:03;;;;;;;19.70;4.03;;;8.30;99.90;;;;;;4995893;28;20042;-86
2022/12/29 10:50:42;;;;;;;24.42;4.47;;;8.30;99.90;;;;;;4992378;28;20510;-84
2022/12/29 10:53:17;;;;;;;20.02;3.58;;;8.30;99.90;;;;;;4989309;28;20439;-86
2022/12/29 10:55:48;;;;;;;22.90;3.53;;;8.20;99.90;;;;;;4997823;28;20100;-86
2022/12/29 10:58:17;;;;;;;16.85;3.58;;;8.30;99.90;;;;;;4990195;28;20389;-85
2022/12/29 11:00:49;;;;;;;19.30;3.25;;;8.40;99.90;;;;;;4998834;28;20049;-84
2022/12/29 11:03:29;;;;;;;20.75;3.28;;;8.40;99.90;;;;;;4991965;28;20054;-86
2022/12/29 11:06:21;;;;;;;24.60;3.60;;;8.50;99.90;;;;;;4993844;28;20950;-84
2022/12/29 11:08:55;;;;;;;10.30;2.75;;;8.30;99.90;;;;;;4991449;28;20061;-86
2022/12/29 11:11:36;;;;;;;18.08;2.88;;;8.30;99.90;;;;;;4995285;28;20055;-84
2022/12/29 11:14:30;;;;;;;10.52;2.65;;;8.30;99.90;;;;;;4993177;28;20121;-85
2022/12/29 11:16:59;;;;;;;12.35;2.67;;;8.30;99.90;;;;;;4992452;28;20056;-85
2022/12/29 11:19:32;;;;;;;12.18;2.53;;;8.40;99.90;;;;;;4992417;28;20507;-84
2022/12/29 11:22:20;;;;;;;14.23;2.85;;;8.40;99.90;;;;;;4995247;28;21371;-87
2022/12/29 11:24:48;;;;;;;12.65;1.90;;;8.30;99.90;;;;;;5012200;28;20041;-86
2022/12/29 11:27:20;;;;;;;13.73;2.80;;;8.30;99.90;;;;;;4990710;28;20598;-83
2022/12/29 11:29:46;;;;;;;10.20;2.40;;;8.30;99.90;;;;;;4994296;28;20052;-86
2022/12/29 11:32:20;;;;;;;15.30;3.05;;;8.40;99.90;;;;;;4990976;28;20046;-83
2022/12/29 11:35:00;;;;;;;15.23;2.88;;;8.30;99.90;;;;;;5017039;28;20056;-91
2022/12/29 11:37:38;;;;;;;9.57;2.33;;;9.40;99.90;;;;;;4976407;28;20049;-85
2022/12/29 11:40:21;;;;;;;12.50;2.78;;;8.30;99.90;;;;;;4990749;28;20049;-85
2022/12/29 11:43:02;;;;;;;12.13;2.42;;;8.30;99.90;;;;;;4975614;28;20466;-84
2022/12/29 11:45:42;;;;;;;;;;;;;;;;;;;;;
2022/12/29 11:48:28;;;;;;;10.98;2.63;;;8.60;99.90;;;;;;5012360;28;20050;-85
2022/12/29 11:50:59;;;;;;;18.80;3.25;;;8.40;99.90;;;;;;4991976;28;20053;-86
2022/12/29 11:53:43;;;;;;;11.73;2.88;;;8.90;99.90;;;;;;4995496;28;20050;-88
2022/12/29 11:56:35;;;;;;;15.10;2.50;;;8.60;99.90;;;;;;4996234;28;20495;-87
2022/12/29 11:59:41;;;;;;;10.77;2.63;;;8.40;99.90;;;;;;4993347;28;20423;-88
2022/12/29 12:06:28;;;;;;;;;;;;;;;;;;;;;
2022/12/29 12:09:09;;;;;;;16.95;5.70;;;7.10;99.90;;;;;;4993914;28;20063;-87
2022/12/29 12:11:48;;;;;;;10.13;1.80;;;9.40;99.90;;;;;;5009362;28;20053;-87
2022/12/29 12:14:34;;;;;;;13.23;2.72;;;8.30;99.90;;;;;;5005812;28;20065;-87
2022/12/29 12:17:06;;;;;;;11.93;2.60;;;8.40;99.90;;;;;;4987540;28;20051;-85
2022/12/29 12:20:02;;;;;;;15.13;3.10;;;8.30;99.90;;;;;;4991758;28;20223;-86
2022/12/29 12:22:45;;;;;;;13.10;2.83;;;8.30;99.90;;;;;;4990149;28;20053;-87
2022/12/29 12:25:24;;;;;;;10.15;2.35;;;8.40;99.90;;;;;;4997106;28;20064;-85
2022/12/29 12:28:29;;;;;;;;;;;;;;;;;;;;;
2022/12/29 12:30:58;;;;;;;19.05;2.55;;;8.20;99.90;;;;;;5015870;28;20492;-85
2022/12/29 12:33:36;;;;;;;12.75;2.85;;;7.10;99.90;;;;;;4992837;28;20061;-85
2022/12/29 12:36:44;;;;;;;10.70;2.42;;;8.30;99.90;;;;;;5012143;28;20111;-87
2022/12/29 12:39:30;;;;;;;11.38;2.30;;;8.00;99.90;;;;;;4947500;28;20057;-87
2022/12/29 12:42:05;;;;;;;12.48;2.13;;;7.30;99.90;;;;;;4997017;28;20068;-86
2022/12/29 12:44:51;;;;;;;12.07;2.25;;;8.20;99.90;;;;;;4999410;28;20054;-85
2022/12/29 12:47:45;;;;;;;17.95;4.95;;;7.60;99.90;;;;;;4995289;28;20052;-86
2022/12/29 12:50:20;;;;;;;13.50;2.60;;;7.30;99.90;;;;;;5000188;28;20049;-86
2022/12/29 12:53:25;;;;;;;10.02;2.30;;;9.00;99.90;;;;;;5017157;28;20140;-86
2022/12/29 12:56:00;;;;;;;12.65;2.65;;;8.40;99.90;;;;;;5000909;28;20194;-86
2022/12/29 12:58:56;;;;;;;12.45;2.13;;;6.70;99.90;;;;;;4997820;28;20046;-87
2022/12/29 13:01:25;;;;;;;9.98;2.67;;;8.30;99.90;;;;;;4987322;28;20424;-87
2022/12/29 13:04:09;;;;;;;14.07;2.53;;;8.20;99.90;;;;;;4993674;28;20052;-88
2022/12/29 13:06:41;;;;;;;15.10;2.50;;;8.20;99.90;;;;;;5001592;28;20128;-86
2022/12/29 13:09:37;;;;;;;13.30;2.47;;;8.20;99.90;;;;;;4997630;28;20053;-88
2022/12/29 13:12:37;;;;;;;14.90;2.40;;;8.20;99.90;;;;;;4997145;28;20380;-87
2022/12/29 13:15:28;;;;;;;12.45;2.47;;;8.30;99.90;;;;;;4994595;28;20480;-86
2022/12/29 13:18:28;;;;;;;11.57;2.33;;;8.20;99.90;;;;;;4993562;28;20053;-86
2022/12/29 13:21:08;;;;;;;12.15;2.00;;;8.20;99.90;;;;;;4991347;28;20112;-86
2022/12/29 13:23:55;;;;;;;13.82;2.25;;;8.20;99.90;;;;;;4986089;28;20059;-86
2022/12/29 13:26:47;;;;;;;14.07;2.78;;;8.10;99.90;;;;;;4997962;28;20053;-87
2022/12/29 13:29:47;;;;;;;12.82;2.50;;;8.10;99.90;;;;;;5010455;28;20061;-87
2022/12/29 13:32:34;;;;;;;16.27;2.72;;;8.20;99.90;;;;;;4994807;28;20041;-86
2022/12/29 13:35:31;;;;;;;16.15;2.15;;;6.90;99.90;;;;;;4995947;28;20061;-86
2022/12/29 13:38:12;;;;;;;13.30;2.78;;;8.20;99.90;;;;;;4998764;28;20061;-86
2022/12/29 13:40:44;;;;;;;16.55;2.60;;;8.40;99.90;;;;;;4994633;28;20041;-85
2022/12/29 13:43:15;;;;;;;17.40;2.85;;;8.30;99.90;;;;;;4996566;28;20531;-89
2022/12/29 13:45:43;;;;;;;16.25;2.67;;;8.10;99.90;;;;;;5015128;28;20137;-85
2022/12/29 13:48:21;;;;;;;16.20;3.13;;;8.00;99.90;;;;;;4997986;28;20073;-86
2022/12/29 13:50:58;;;;;;;10.98;2.70;;;8.00;99.90;;;;;;4996021;28;20081;-85
2022/12/29 13:53:43;;;;;;;13.38;2.63;;;8.00;99.90;;;;;;4995588;28;20117;-85
2022/12/29 13:56:45;;;;;;;12.57;2.53;;;8.00;99.90;;;;;;4999204;28;20041;-86
2022/12/29 13:59:38;;;;;;;8.43;2.42;;;8.00;99.90;;;;;;4992912;28;20058;-84
2022/12/29 14:02:32;;;;;;;12.57;2.45;;;7.80;99.90;;;;;;4993044;28;20119;-85
2022/12/29 14:05:06;;;;;;;15.10;2.78;;;7.00;99.90;;;;;;4999501;28;20046;-87
2022/12/29 14:07:39;;;;;;;12.50;2.75;;;8.00;99.90;;;;;;5013020;28;20057;-87
2022/12/29 14:10:08;;;;;;;12.80;2.60;;;8.00;99.90;;;;;;5014813;28;20056;-86
2022/12/29 14:12:43;;;;;;;14.40;2.72;;;7.60;99.90;;;;;;4999450;28;20058;-85
2022/12/29 14:15:12;;;;;;;14.55;2.40;;;7.80;99.90;;;;;;4998479;28;20046;-86
2022/12/29 14:17:41;;;;;;;11.85;2.33;;;8.00;99.90;;;;;;5015857;28;20446;-85